Tacoma Park, South Dakota
Current Conditions -  °F | °C
As of 11:53 AM on Wednesday 26 Nov 2014 (Local Time) from KABR Reporting Station
Broken Clouds Broken Clouds  
Wind Chill: -10°   Ceiling: 11000
Heat Index:   Visibility: 10mi
Dew Point: -2°   Wind: 16mph
Humidity: 64%   Direction: 360°N
Pressure: 30.37"   Gusts: NA
Location:  45.6832°N, 98.2967°W
Report Text: KABR 261753Z AUTO 36014KT 10SM BKN110 M13/M19 A3037 RMK AO2 SLP307 T11331189 11117 21150 50018
Loading
Personal Weather Stations






























Interactive Weather Map New forecast layout! Learn more

10-Day Weather Forecast

Advertisements
Track Severe Weather on mobile